Historique des mesures à Cassis (13260), France
Quotidien Résumé Fevrier 22, 2017 Unités:  US    Métrique   Métrique/US
« Précédent (Jour)
Suivant (Jour) »
Quotidien Hebdomadaire Mensuel Annuel Période au choix
  Maximum: Minimum: Moyenne:
Température: 32 °F 47.1 °F 53.2 °F
Point de rosée: 32 °F 41.5 °F 45 °F
Humidité: Humidity % 61 % 70 %
Vitesse du vent: WindSpeedKMH mph 0.0 mph 0.9 mph
Rafales: WindSpeedGustKMH mph - -
Vent:- - SE
Pression: 0 in 30 in -
Précipitations: 0 in    
Historical Graphs
 
 
Mesures pour : Fevrier 22, 2017
Heure Temperature Point de rosée Pression Vent Vitesse du vent Rafales Humidité Pluie (par heure) Conditions
32 °F 32 °F 0 in Calm     Humidity % 0 in SoftwareType W/m2
00:10 52.9 °F 44.4 °F 30 in Calm     73 % 0 in open2300-1.11 W/m2
01:11 51.6 °F 43.3 °F 30 in Calm     73 % 0 in open2300-1.11 W/m2
02:10 50.4 °F 42.4 °F 30 in Calm     74 % 0 in open2300-1.11 W/m2
03:11 49.6 °F 43 °F 30 in Calm     78 % 0 in open2300-1.11 W/m2
04:10 49.1 °F 42.8 °F 30 in Calm     79 % 0 in open2300-1.11 W/m2
05:11 48.6 °F 43 °F 30 in Calm     81 % 0 in open2300-1.11 W/m2
06:10 48 °F 42.4 °F 30 in Calm     81 % 0 in open2300-1.11 W/m2
07:11 47.1 °F 41.5 °F 30 in Calm     81 % 0 in open2300-1.11 W/m2
08:10 48.6 °F 43 °F 30 in Calm     81 % 0 in open2300-1.11 W/m2
09:11 51.4 °F 45.5 °F 30 in Calm     80 % 0 in open2300-1.11 W/m2
10:10 54 °F 46.6 °F 30 in East 5.5 mph 5.5 mph 76 % 0 in open2300-1.11 W/m2
11:11 57 °F 48 °F 30 in Calm     72 % 0 in open2300-1.11 W/m2
12:10 59.2 °F 49.8 °F 30 in Calm     71 % 0 in open2300-1.11 W/m2
13:11 59.9 °F 50.2 °F 30 in South 3.5 mph 3.5 mph 70 % 0 in open2300-1.11 W/m2
14:10 60.3 °F 50.2 °F 30 in West 1.8 mph 2.9 mph 69 % 0 in open2300-1.11 W/m2
15:11 60.6 °F 50.2 °F 30 in SE 6.4 mph 6.4 mph 68 % 0 in open2300-1.11 W/m2
16:10 60.6 °F 50.9 °F 30 in Calm   4.0 mph 70 % 0 in open2300-1.11 W/m2
17:11 61 °F 47.8 °F 30 in North 5.0 mph 7.6 mph 62 % 0 in open2300-1.11 W/m2
18:10 58.8 °F 45.3 °F 30 in Calm   5.8 mph 61 % 0 in open2300-1.11 W/m2
19:11 56.8 °F 45.5 °F 30 in Calm     66 % 0 in open2300-1.11 W/m2
20:10 54.9 °F 44.4 °F 30 in Calm     68 % 0 in open2300-1.11 W/m2
21:11 53.2 °F 43.7 °F 30 in Calm     70 % 0 in open2300-1.11 W/m2
22:10 52.2 °F 44.1 °F 30 in Calm     74 % 0 in open2300-1.11 W/m2
23:11 51.4 °F 44.4 °F 30 in Calm     77 % 0 in open2300-1.11 W/m2
Observations météo à CASSIS
WU-History script by Weather Underground - 1 mb